Flight Track Log - Related Links

Times and Time Zones

All times are in EDT time to prevent confusion due to time zone crossing. See the RPA3436 flight status page for this flight to view local times or setup timezone preferences in your user account.

Time Position Orientation Groundspeed Altitude Reporting Facility
EDT Latitude Longitude Course Direction KTS MPH feet Rate Location/Type
Sat 10:02:20 AM 38.8167 -77.0333 61° Northeast 164 189 1,900  Level Potomac TRACON
Sat 10:03:15 AM 38.7667 -77.0000 153° Southeast 250 288 4,000 2,557 Climbing Potomac TRACON
Sat 10:04:00 AM 38.9506 -76.7316 67° East  Level FlightAware Approximate
Sat 10:04:15 AM 38.8167 -76.9333 46° Northeast 285 328 6,800  Level Potomac TRACON
Sat 10:05:00 AM 38.9898 -76.6305 67° East  Level FlightAware Approximate
Sat 10:05:52 AM 38.9275 -76.8592 27° Northeast 297 342 10,900  Level Washington Center
Sat 10:06:00 AM 39.0291 -76.5294 67° East  Level FlightAware Approximate
Sat 10:06:53 AM 38.9828 -76.7639 53° Northeast 307 353 12,200  Level Washington Center
Sat 10:07:00 AM 39.0689 -76.4282 61° Northeast  Level FlightAware Approximate
Sat 10:07:54 AM 39.0236 -76.6336 68° East 343 395 13,800  Level Washington Center
Sat 10:08:51 AM 39.0642 -76.5006 69° East 374 430 15,600 1,714 Climbing Washington Center
Sat 10:09:53 AM 39.1069 -76.3619 68° East 397 457 17,200 1,366 Climbing Washington Center
Sat 10:10:54 AM 39.1494 -76.2153 69° East 416 479 18,400 1,289 Climbing Washington Center
Sat 10:11:54 AM 39.1708 -76.0628 80° East 422 486 19,800 2,034 Climbing Washington Center
Sat 10:12:52 AM 39.1900 -75.9131 81° East 427 491 22,400 2,067 Climbing Washington Center
Sat 10:13:53 AM 39.2611 -75.7953 52° Northeast 408 470 23,900 1,623 Climbing Washington Center
Sat 10:14:54 AM 39.3447 -75.6856 45° Northeast 408 470 25,700 1,916 Climbing Washington Center
Sat 10:15:52 AM 39.4261 -75.5808 45° Northeast 413 475 27,700 1,664 Climbing Washington Center
Sat 10:16:53 AM 39.5072 -75.4758 45° Northeast 413 475 29,000 639 Climbing Washington Center
Sat 10:17:54 AM 39.5883 -75.3681 46° Northeast 406 467 29,000  Level Washington Center
Sat 10:18:54 AM 39.6653 -75.2653 46° Northeast 406 467 29,000  Level Washington Center
Sat 10:19:52 AM 39.7439 -75.1569 47° Northeast 406 467 29,000  Level Washington Center
Sat 10:20:40 AM 39.8128 -75.0517 50° Northeast 411 473 29,000  Level New York Center
Sat 10:21:41 AM 39.8897 -74.9453 47° Northeast 411 473 29,000  Level New York Center
Sat 10:22:39 AM 39.9664 -74.8336 48° Northeast 406 467 29,000  Level New York Center
Sat 10:23:39 AM 40.0453 -74.7242 47° Northeast 406 467 29,000  Level New York Center
Sat 10:24:40 AM 40.1219 -74.6119 48° Northeast 406 467 29,000  Level New York Center
Sat 10:25:40 AM 40.1983 -74.5019 48° Northeast 400 460 29,000  Level New York Center
Sat 10:26:39 AM 40.2869 -74.4033 40° Northeast 405 466 29,000  Level New York Center
Sat 10:27:41 AM 40.3753 -74.3100 39° Northeast 405 466 29,000  Level New York Center
Sat 10:28:41 AM 40.4633 -74.2164 39° Northeast 405 466 29,000  Level New York Center
Sat 10:29:39 AM 40.5517 -74.1225 39° Northeast 405 466 29,000 -908 Level New York Center
Sat 10:30:40 AM 40.6397 -74.0256 40° Northeast 410 472 27,200 -1,435 Descending New York Center
Sat 10:33:08 AM 40.8586 -73.7847 40° Northeast 401 461 24,000 -1,067 Descending Boston Center
Sat 10:34:08 AM 40.9450 -73.6847 41° Northeast 407 468 23,500 -500 Descending Boston Center
Sat 10:35:08 AM 41.0228 -73.6258 30° Northeast 407 468 23,000 -250 Descending Boston Center
Sat 10:36:08 AM 41.1278 -73.5506 28° Northeast 397 457 23,000 -300 Level Boston Center
Sat 10:37:08 AM 41.2286 -73.4806 28° Northeast 397 457 22,400 -1,100 Descending Boston Center
Sat 10:38:08 AM 41.3231 -73.4075 30° Northeast 397 457 20,800 -1,650 Descending Boston Center
Sat 10:39:08 AM 41.4153 -73.3425 28° Northeast 384 442 19,100 -1,400 Descending Boston Center
Sat 10:40:08 AM 41.5072 -73.2911 23° Northeast 361 415 18,000 -500 Descending Boston Center
Sat 10:41:20 AM 41.6197 -73.3203 349° North 328 377 18,000 -364 Level Boston Center
Sat 10:42:20 AM 41.7069 -73.3550 343° North 328 377 17,200 -500 Descending Boston Center
Sat 10:43:20 AM 41.8003 -73.3953 342° North 328 377 17,000 -700 Descending Boston Center
Sat 10:44:20 AM 41.8772 -73.4272 343° North 328 377 15,800 -1,650 Descending Boston Center
Sat 10:45:20 AM 41.9622 -73.4647 342° North 318 366 13,700 -2,121 Descending Boston Center
Sat 10:45:59 AM 42.0142 -73.4850 344° North 294 338 12,300 -1,636 Descending Boston Center
Sat 10:46:59 AM 42.0889 -73.5228 339° North 291 335 11,000 -614 Descending Boston Center
Sat 10:48:06 AM 42.1761 -73.5636 341° North 284 327 11,000  Level Boston Center
Sat 10:49:07 AM 42.2506 -73.5983 341° North 288 331 11,000 -828 Level Boston Center
Sat 10:50:02 AM 42.3192 -73.6333 339° North 285 328 9,400 -1,930 Descending Boston Center
Sat 10:51:02 AM 42.3939 -73.6686 341° North 278 320 7,300 -2,220 Descending Boston Center
Sat 10:52:09 AM 42.4642 -73.7094 337° Northwest 264 304 4,700 -2,109 Descending Boston Center
Sat 10:53:10 AM 42.5367 -73.7447 340° North 258 297 2,800 -1,339 Descending Boston Center
Sat 10:54:10 AM 42.6031 -73.7769 340° North 244 281 2,000 -417 Descending Boston Center
Sat 10:55:05 AM 42.6467 -73.7978 341° North 174 200 2,000  Level Boston Center

Login

Don't have an account? Register now (free) for customized features, flight alerts, and more!